sensor_id;sensor_type;location;lat;lon;timestamp;P1;durP1;ratioP1;P2;durP2;ratioP2
4889;SDS011;2459;42.268;23.112;2023-01-15T00:01:24;32.30;;;14.93;;
4889;SDS011;2459;42.268;23.112;2023-01-15T00:03:51;31.73;;;13.53;;
4889;SDS011;2459;42.268;23.112;2023-01-15T00:06:18;32.70;;;16.20;;
4889;SDS011;2459;42.268;23.112;2023-01-15T00:08:44;36.07;;;15.63;;
4889;SDS011;2459;42.268;23.112;2023-01-15T00:11:11;38.83;;;15.23;;
4889;SDS011;2459;42.268;23.112;2023-01-15T00:13:37;38.07;;;15.13;;
4889;SDS011;2459;42.268;23.112;2023-01-15T00:16:06;31.93;;;14.90;;
4889;SDS011;2459;42.268;23.112;2023-01-15T00:18:32;37.50;;;16.50;;
4889;SDS011;2459;42.268;23.112;2023-01-15T00:20:59;37.20;;;15.07;;
4889;SDS011;2459;42.268;23.112;2023-01-15T00:23:26;39.33;;;16.70;;
4889;SDS011;2459;42.268;23.112;2023-01-15T00:26:10;47.70;;;17.00;;
4889;SDS011;2459;42.268;23.112;2023-01-15T00:28:55;32.40;;;15.53;;
4889;SDS011;2459;42.268;23.112;2023-01-15T00:31:23;38.83;;;16.23;;
4889;SDS011;2459;42.268;23.112;2023-01-15T00:33:49;39.00;;;15.10;;
4889;SDS011;2459;42.268;23.112;2023-01-15T00:36:16;40.83;;;16.40;;
4889;SDS011;2459;42.268;23.112;2023-01-15T00:38:42;36.13;;;14.37;;
4889;SDS011;2459;42.268;23.112;2023-01-15T00:41:09;32.97;;;14.50;;
4889;SDS011;2459;42.268;23.112;2023-01-15T00:43:35;37.50;;;14.10;;
4889;SDS011;2459;42.268;23.112;2023-01-15T00:46:02;35.33;;;15.13;;
4889;SDS011;2459;42.268;23.112;2023-01-15T00:48:30;41.20;;;14.17;;
4889;SDS011;2459;42.268;23.112;2023-01-15T00:50:57;32.13;;;14.30;;
4889;SDS011;2459;42.268;23.112;2023-01-15T00:53:23;36.63;;;14.53;;
4889;SDS011;2459;42.268;23.112;2023-01-15T00:55:50;39.03;;;15.90;;
4889;SDS011;2459;42.268;23.112;2023-01-15T00:58:16;44.07;;;16.03;;
4889;SDS011;2459;42.268;23.112;2023-01-15T01:00:43;35.40;;;15.80;;
4889;SDS011;2459;42.268;23.112;2023-01-15T01:03:09;32.43;;;13.40;;
4889;SDS011;2459;42.268;23.112;2023-01-15T01:05:37;46.73;;;16.10;;
4889;SDS011;2459;42.268;23.112;2023-01-15T01:08:04;39.90;;;15.03;;
4889;SDS011;2459;42.268;23.112;2023-01-15T01:10:30;38.37;;;14.50;;
4889;SDS011;2459;42.268;23.112;2023-01-15T01:12:57;37.37;;;15.60;;
4889;SDS011;2459;42.268;23.112;2023-01-15T01:15:23;37.33;;;13.90;;
4889;SDS011;2459;42.268;23.112;2023-01-15T01:17:50;37.80;;;15.47;;
4889;SDS011;2459;42.268;23.112;2023-01-15T01:20:16;33.83;;;13.57;;
4889;SDS011;2459;42.268;23.112;2023-01-15T01:22:46;38.70;;;11.67;;
4889;SDS011;2459;42.268;23.112;2023-01-15T01:25:13;17.83;;;8.43;;
4889;SDS011;2459;42.268;23.112;2023-01-15T01:27:39;32.70;;;14.43;;
4889;SDS011;2459;42.268;23.112;2023-01-15T01:30:06;34.20;;;12.57;;
4889;SDS011;2459;42.268;23.112;2023-01-15T01:32:33;32.57;;;13.80;;
4889;SDS011;2459;42.268;23.112;2023-01-15T01:35:01;35.20;;;14.10;;
4889;SDS011;2459;42.268;23.112;2023-01-15T01:37:27;27.13;;;12.40;;
4889;SDS011;2459;42.268;23.112;2023-01-15T01:39:55;33.73;;;13.03;;
4889;SDS011;2459;42.268;23.112;2023-01-15T01:42:21;21.63;;;12.50;;
4889;SDS011;2459;42.268;23.112;2023-01-15T01:44:59;27.63;;;13.27;;
4889;SDS011;2459;42.268;23.112;2023-01-15T01:47:26;31.17;;;13.07;;
4889;SDS011;2459;42.268;23.112;2023-01-15T01:49:56;20.90;;;10.20;;
4889;SDS011;2459;42.268;23.112;2023-01-15T01:52:25;28.97;;;14.03;;
4889;SDS011;2459;42.268;23.112;2023-01-15T01:54:52;29.50;;;11.90;;
4889;SDS011;2459;42.268;23.112;2023-01-15T01:57:20;33.53;;;13.73;;
4889;SDS011;2459;42.268;23.112;2023-01-15T01:59:47;25.90;;;12.50;;
4889;SDS011;2459;42.268;23.112;2023-01-15T02:02:14;24.43;;;11.67;;
4889;SDS011;2459;42.268;23.112;2023-01-15T02:04:42;29.43;;;13.80;;
4889;SDS011;2459;42.268;23.112;2023-01-15T02:07:08;25.10;;;13.27;;
4889;SDS011;2459;42.268;23.112;2023-01-15T02:09:35;23.17;;;12.73;;
4889;SDS011;2459;42.268;23.112;2023-01-15T02:12:05;25.23;;;13.03;;
4889;SDS011;2459;42.268;23.112;2023-01-15T02:14:34;35.10;;;15.27;;
4889;SDS011;2459;42.268;23.112;2023-01-15T02:17:03;29.07;;;11.77;;
4889;SDS011;2459;42.268;23.112;2023-01-15T02:19:36;31.37;;;14.23;;
4889;SDS011;2459;42.268;23.112;2023-01-15T02:22:08;33.50;;;13.87;;
4889;SDS011;2459;42.268;23.112;2023-01-15T02:24:41;21.70;;;11.30;;
4889;SDS011;2459;42.268;23.112;2023-01-15T02:27:12;18.23;;;9.97;;
4889;SDS011;2459;42.268;23.112;2023-01-15T02:29:48;42.07;;;13.60;;
4889;SDS011;2459;42.268;23.112;2023-01-15T02:32:16;19.80;;;9.97;;
4889;SDS011;2459;42.268;23.112;2023-01-15T02:34:45;24.23;;;10.97;;
4889;SDS011;2459;42.268;23.112;2023-01-15T02:37:14;25.67;;;10.17;;
4889;SDS011;2459;42.268;23.112;2023-01-15T02:39:42;20.33;;;11.37;;
4889;SDS011;2459;42.268;23.112;2023-01-15T02:42:09;18.43;;;10.17;;
4889;SDS011;2459;42.268;23.112;2023-01-15T02:44:38;23.20;;;11.27;;
4889;SDS011;2459;42.268;23.112;2023-01-15T02:47:06;16.97;;;9.17;;
4889;SDS011;2459;42.268;23.112;2023-01-15T02:49:33;21.67;;;11.40;;
4889;SDS011;2459;42.268;23.112;2023-01-15T02:52:02;24.33;;;11.93;;
4889;SDS011;2459;42.268;23.112;2023-01-15T02:54:30;15.47;;;8.67;;
4889;SDS011;2459;42.268;23.112;2023-01-15T02:56:58;20.33;;;10.80;;
4889;SDS011;2459;42.268;23.112;2023-01-15T02:59:27;22.83;;;10.80;;
4889;SDS011;2459;42.268;23.112;2023-01-15T03:01:57;26.67;;;12.53;;
4889;SDS011;2459;42.268;23.112;2023-01-15T03:04:26;26.03;;;11.23;;
4889;SDS011;2459;42.268;23.112;2023-01-15T03:06:55;25.47;;;11.77;;
4889;SDS011;2459;42.268;23.112;2023-01-15T03:09:25;28.47;;;11.53;;
4889;SDS011;2459;42.268;23.112;2023-01-15T03:11:55;21.67;;;10.50;;
4889;SDS011;2459;42.268;23.112;2023-01-15T03:14:23;25.57;;;10.73;;
4889;SDS011;2459;42.268;23.112;2023-01-15T03:16:52;23.20;;;12.20;;
4889;SDS011;2459;42.268;23.112;2023-01-15T03:19:22;24.00;;;11.63;;
4889;SDS011;2459;42.268;23.112;2023-01-15T03:21:50;24.73;;;12.03;;
4889;SDS011;2459;42.268;23.112;2023-01-15T03:24:20;24.23;;;11.60;;
4889;SDS011;2459;42.268;23.112;2023-01-15T03:26:49;30.57;;;10.23;;
4889;SDS011;2459;42.268;23.112;2023-01-15T03:29:17;22.80;;;11.57;;
4889;SDS011;2459;42.268;23.112;2023-01-15T03:31:44;19.70;;;10.93;;
4889;SDS011;2459;42.268;23.112;2023-01-15T03:34:11;19.40;;;10.40;;
4889;SDS011;2459;42.268;23.112;2023-01-15T03:36:38;30.60;;;12.93;;
4889;SDS011;2459;42.268;23.112;2023-01-15T03:39:05;21.80;;;10.20;;
4889;SDS011;2459;42.268;23.112;2023-01-15T03:41:34;25.13;;;10.80;;
4889;SDS011;2459;42.268;23.112;2023-01-15T03:44:05;21.30;;;10.83;;
4889;SDS011;2459;42.268;23.112;2023-01-15T03:46:38;21.80;;;12.70;;
4889;SDS011;2459;42.268;23.112;2023-01-15T03:49:09;23.40;;;12.63;;
4889;SDS011;2459;42.268;23.112;2023-01-15T03:51:41;22.87;;;11.93;;
4889;SDS011;2459;42.268;23.112;2023-01-15T03:54:11;31.50;;;12.03;;
4889;SDS011;2459;42.268;23.112;2023-01-15T03:56:41;22.93;;;11.30;;
4889;SDS011;2459;42.268;23.112;2023-01-15T03:59:13;21.37;;;11.43;;
4889;SDS011;2459;42.268;23.112;2023-01-15T04:01:40;25.20;;;12.37;;
4889;SDS011;2459;42.268;23.112;2023-01-15T04:04:07;21.10;;;11.73;;
4889;SDS011;2459;42.268;23.112;2023-01-15T04:06:35;23.23;;;11.40;;
4889;SDS011;2459;42.268;23.112;2023-01-15T04:09:05;24.27;;;12.07;;
4889;SDS011;2459;42.268;23.112;2023-01-15T04:11:32;22.70;;;10.50;;
4889;SDS011;2459;42.268;23.112;2023-01-15T04:13:59;20.83;;;9.93;;
4889;SDS011;2459;42.268;23.112;2023-01-15T04:16:26;26.30;;;12.40;;
4889;SDS011;2459;42.268;23.112;2023-01-15T04:18:53;21.93;;;12.70;;
4889;SDS011;2459;42.268;23.112;2023-01-15T04:21:19;33.43;;;13.70;;
4889;SDS011;2459;42.268;23.112;2023-01-15T04:23:46;25.67;;;14.03;;
4889;SDS011;2459;42.268;23.112;2023-01-15T04:26:14;23.40;;;11.63;;
4889;SDS011;2459;42.268;23.112;2023-01-15T04:28:40;24.67;;;12.70;;
4889;SDS011;2459;42.268;23.112;2023-01-15T04:31:07;21.07;;;11.80;;
4889;SDS011;2459;42.268;23.112;2023-01-15T04:33:33;25.07;;;12.30;;
4889;SDS011;2459;42.268;23.112;2023-01-15T04:36:01;23.53;;;13.07;;
4889;SDS011;2459;42.268;23.112;2023-01-15T04:38:28;24.90;;;12.77;;
4889;SDS011;2459;42.268;23.112;2023-01-15T04:40:58;26.33;;;13.80;;
4889;SDS011;2459;42.268;23.112;2023-01-15T04:43:44;33.20;;;12.80;;
4889;SDS011;2459;42.268;23.112;2023-01-15T04:46:28;25.43;;;13.63;;
4889;SDS011;2459;42.268;23.112;2023-01-15T04:48:54;29.57;;;16.03;;
4889;SDS011;2459;42.268;23.112;2023-01-15T04:51:21;33.50;;;14.57;;
4889;SDS011;2459;42.268;23.112;2023-01-15T04:53:47;27.33;;;13.10;;
4889;SDS011;2459;42.268;23.112;2023-01-15T04:56:14;33.23;;;16.10;;
4889;SDS011;2459;42.268;23.112;2023-01-15T04:58:40;42.83;;;18.03;;
4889;SDS011;2459;42.268;23.112;2023-01-15T05:01:10;39.93;;;17.13;;
4889;SDS011;2459;42.268;23.112;2023-01-15T05:03:37;38.73;;;14.37;;
4889;SDS011;2459;42.268;23.112;2023-01-15T05:06:03;22.03;;;10.10;;
4889;SDS011;2459;42.268;23.112;2023-01-15T05:08:30;28.53;;;12.10;;
4889;SDS011;2459;42.268;23.112;2023-01-15T05:10:59;23.93;;;11.93;;
4889;SDS011;2459;42.268;23.112;2023-01-15T05:13:26;20.20;;;9.50;;
4889;SDS011;2459;42.268;23.112;2023-01-15T05:15:54;19.00;;;11.13;;
4889;SDS011;2459;42.268;23.112;2023-01-15T05:18:22;20.10;;;11.70;;
4889;SDS011;2459;42.268;23.112;2023-01-15T05:20:48;36.10;;;11.90;;
4889;SDS011;2459;42.268;23.112;2023-01-15T05:23:15;25.20;;;11.07;;
4889;SDS011;2459;42.268;23.112;2023-01-15T05:25:41;33.80;;;14.70;;
4889;SDS011;2459;42.268;23.112;2023-01-15T05:28:08;26.77;;;14.00;;
4889;SDS011;2459;42.268;23.112;2023-01-15T05:30:34;23.93;;;12.03;;
4889;SDS011;2459;42.268;23.112;2023-01-15T05:33:01;25.97;;;12.93;;
4889;SDS011;2459;42.268;23.112;2023-01-15T05:35:29;24.03;;;12.80;;
4889;SDS011;2459;42.268;23.112;2023-01-15T05:37:55;28.67;;;14.67;;
4889;SDS011;2459;42.268;23.112;2023-01-15T05:40:22;38.10;;;18.17;;
4889;SDS011;2459;42.268;23.112;2023-01-15T05:42:48;31.80;;;14.33;;
4889;SDS011;2459;42.268;23.112;2023-01-15T05:45:15;35.13;;;15.97;;
4889;SDS011;2459;42.268;23.112;2023-01-15T05:47:41;22.30;;;11.47;;
4889;SDS011;2459;42.268;23.112;2023-01-15T05:50:08;27.63;;;13.40;;
4889;SDS011;2459;42.268;23.112;2023-01-15T05:52:36;28.30;;;13.37;;
4889;SDS011;2459;42.268;23.112;2023-01-15T05:55:03;64.90;;;27.53;;
4889;SDS011;2459;42.268;23.112;2023-01-15T05:57:29;28.87;;;12.83;;
4889;SDS011;2459;42.268;23.112;2023-01-15T05:59:56;23.53;;;11.27;;
4889;SDS011;2459;42.268;23.112;2023-01-15T06:02:23;34.33;;;13.20;;
4889;SDS011;2459;42.268;23.112;2023-01-15T06:04:49;27.90;;;13.33;;
4889;SDS011;2459;42.268;23.112;2023-01-15T06:07:16;27.83;;;14.27;;
4889;SDS011;2459;42.268;23.112;2023-01-15T06:09:44;27.70;;;12.13;;
4889;SDS011;2459;42.268;23.112;2023-01-15T06:12:10;23.77;;;12.00;;
4889;SDS011;2459;42.268;23.112;2023-01-15T06:14:37;29.40;;;13.43;;
4889;SDS011;2459;42.268;23.112;2023-01-15T06:17:03;23.37;;;10.30;;
4889;SDS011;2459;42.268;23.112;2023-01-15T06:19:30;29.60;;;12.63;;
4889;SDS011;2459;42.268;23.112;2023-01-15T06:21:57;24.83;;;11.43;;
4889;SDS011;2459;42.268;23.112;2023-01-15T06:24:23;20.30;;;10.63;;
4889;SDS011;2459;42.268;23.112;2023-01-15T06:26:51;20.80;;;10.47;;
4889;SDS011;2459;42.268;23.112;2023-01-15T06:29:18;23.20;;;11.17;;
4889;SDS011;2459;42.268;23.112;2023-01-15T06:31:44;44.37;;;18.63;;
4889;SDS011;2459;42.268;23.112;2023-01-15T06:34:11;42.03;;;17.60;;
4889;SDS011;2459;42.268;23.112;2023-01-15T06:36:37;32.73;;;15.30;;
4889;SDS011;2459;42.268;23.112;2023-01-15T06:39:04;26.60;;;11.23;;
4889;SDS011;2459;42.268;23.112;2023-01-15T06:41:30;24.50;;;12.67;;
4889;SDS011;2459;42.268;23.112;2023-01-15T06:44:16;37.90;;;13.87;;
4889;SDS011;2459;42.268;23.112;2023-01-15T06:47:00;34.13;;;12.90;;
4889;SDS011;2459;42.268;23.112;2023-01-15T06:49:45;31.83;;;15.63;;
4889;SDS011;2459;42.268;23.112;2023-01-15T06:52:12;49.87;;;22.97;;
4889;SDS011;2459;42.268;23.112;2023-01-15T06:54:38;40.80;;;18.03;;
4889;SDS011;2459;42.268;23.112;2023-01-15T06:57:05;37.03;;;15.80;;
4889;SDS011;2459;42.268;23.112;2023-01-15T06:59:33;37.23;;;16.37;;
4889;SDS011;2459;42.268;23.112;2023-01-15T07:01:59;51.50;;;22.13;;
4889;SDS011;2459;42.268;23.112;2023-01-15T07:04:26;43.50;;;18.80;;
4889;SDS011;2459;42.268;23.112;2023-01-15T07:06:52;86.77;;;38.50;;
4889;SDS011;2459;42.268;23.112;2023-01-15T07:09:19;94.93;;;42.20;;
4889;SDS011;2459;42.268;23.112;2023-01-15T07:11:45;68.13;;;34.77;;
4889;SDS011;2459;42.268;23.112;2023-01-15T07:14:15;98.60;;;38.13;;
4889;SDS011;2459;42.268;23.112;2023-01-15T07:16:43;65.33;;;29.43;;
4889;SDS011;2459;42.268;23.112;2023-01-15T07:19:10;94.17;;;31.53;;
4889;SDS011;2459;42.268;23.112;2023-01-15T07:21:36;101.17;;;40.20;;
4889;SDS011;2459;42.268;23.112;2023-01-15T07:24:03;111.03;;;48.87;;
4889;SDS011;2459;42.268;23.112;2023-01-15T07:26:30;62.47;;;30.47;;
4889;SDS011;2459;42.268;23.112;2023-01-15T07:28:56;79.37;;;30.27;;
4889;SDS011;2459;42.268;23.112;2023-01-15T07:31:22;68.00;;;29.03;;
4889;SDS011;2459;42.268;23.112;2023-01-15T07:33:50;68.00;;;29.10;;
4889;SDS011;2459;42.268;23.112;2023-01-15T07:36:17;86.87;;;37.87;;
4889;SDS011;2459;42.268;23.112;2023-01-15T07:38:43;120.93;;;49.77;;
4889;SDS011;2459;42.268;23.112;2023-01-15T07:41:10;75.47;;;34.80;;
4889;SDS011;2459;42.268;23.112;2023-01-15T07:43:53;89.93;;;39.53;;
4889;SDS011;2459;42.268;23.112;2023-01-15T07:46:37;133.30;;;55.90;;
4889;SDS011;2459;42.268;23.112;2023-01-15T07:49:25;155.63;;;69.13;;
4889;SDS011;2459;42.268;23.112;2023-01-15T07:52:09;147.10;;;64.07;;
4889;SDS011;2459;42.268;23.112;2023-01-15T07:54:35;193.17;;;87.17;;
4889;SDS011;2459;42.268;23.112;2023-01-15T07:57:02;159.17;;;73.67;;
4889;SDS011;2459;42.268;23.112;2023-01-15T07:59:29;135.10;;;61.57;;
4889;SDS011;2459;42.268;23.112;2023-01-15T08:01:55;112.90;;;50.90;;
4889;SDS011;2459;42.268;23.112;2023-01-15T08:04:22;99.30;;;42.77;;
4889;SDS011;2459;42.268;23.112;2023-01-15T08:06:49;61.43;;;28.23;;
4889;SDS011;2459;42.268;23.112;2023-01-15T08:09:16;79.17;;;36.80;;
4889;SDS011;2459;42.268;23.112;2023-01-15T08:11:42;77.40;;;37.80;;
4889;SDS011;2459;42.268;23.112;2023-01-15T08:14:26;99.70;;;41.07;;
4889;SDS011;2459;42.268;23.112;2023-01-15T08:17:10;210.57;;;88.40;;
4889;SDS011;2459;42.268;23.112;2023-01-15T08:19:37;173.10;;;71.23;;
4889;SDS011;2459;42.268;23.112;2023-01-15T08:22:05;122.47;;;55.90;;
4889;SDS011;2459;42.268;23.112;2023-01-15T08:24:31;111.97;;;48.07;;
4889;SDS011;2459;42.268;23.112;2023-01-15T08:26:58;137.50;;;53.80;;
4889;SDS011;2459;42.268;23.112;2023-01-15T08:29:24;147.13;;;59.17;;
4889;SDS011;2459;42.268;23.112;2023-01-15T08:31:50;86.17;;;43.40;;
4889;SDS011;2459;42.268;23.112;2023-01-15T08:34:17;72.50;;;36.90;;
4889;SDS011;2459;42.268;23.112;2023-01-15T08:36:43;67.53;;;35.70;;
4889;SDS011;2459;42.268;23.112;2023-01-15T08:39:11;56.37;;;29.33;;
4889;SDS011;2459;42.268;23.112;2023-01-15T08:41:38;61.90;;;31.50;;
4889;SDS011;2459;42.268;23.112;2023-01-15T08:44:04;42.33;;;22.37;;
4889;SDS011;2459;42.268;23.112;2023-01-15T08:46:31;68.70;;;29.67;;
4889;SDS011;2459;42.268;23.112;2023-01-15T08:48:57;51.90;;;26.20;;
4889;SDS011;2459;42.268;23.112;2023-01-15T08:51:24;56.17;;;30.40;;
4889;SDS011;2459;42.268;23.112;2023-01-15T08:53:51;60.80;;;29.50;;
4889;SDS011;2459;42.268;23.112;2023-01-15T08:56:19;54.73;;;26.77;;
4889;SDS011;2459;42.268;23.112;2023-01-15T08:58:45;57.67;;;24.60;;
4889;SDS011;2459;42.268;23.112;2023-01-15T09:01:12;49.67;;;24.60;;
4889;SDS011;2459;42.268;23.112;2023-01-15T09:03:40;27.73;;;12.97;;
4889;SDS011;2459;42.268;23.112;2023-01-15T09:06:06;41.60;;;20.47;;
4889;SDS011;2459;42.268;23.112;2023-01-15T09:08:33;43.60;;;18.20;;
4889;SDS011;2459;42.268;23.112;2023-01-15T09:11:00;46.23;;;19.57;;
4889;SDS011;2459;42.268;23.112;2023-01-15T09:13:28;41.67;;;18.90;;
4889;SDS011;2459;42.268;23.112;2023-01-15T09:15:57;33.97;;;15.50;;
4889;SDS011;2459;42.268;23.112;2023-01-15T09:18:24;37.90;;;14.70;;
4889;SDS011;2459;42.268;23.112;2023-01-15T09:20:50;26.30;;;11.10;;
4889;SDS011;2459;42.268;23.112;2023-01-15T09:23:17;25.47;;;12.07;;
4889;SDS011;2459;42.268;23.112;2023-01-15T09:25:50;24.60;;;9.73;;
4889;SDS011;2459;42.268;23.112;2023-01-15T09:28:19;28.13;;;13.57;;
4889;SDS011;2459;42.268;23.112;2023-01-15T09:30:47;32.63;;;13.50;;
4889;SDS011;2459;42.268;23.112;2023-01-15T09:33:13;31.83;;;12.93;;
4889;SDS011;2459;42.268;23.112;2023-01-15T09:35:40;30.23;;;13.80;;
4889;SDS011;2459;42.268;23.112;2023-01-15T09:38:08;27.83;;;14.47;;
4889;SDS011;2459;42.268;23.112;2023-01-15T09:40:39;40.20;;;15.17;;
4889;SDS011;2459;42.268;23.112;2023-01-15T09:43:12;31.17;;;12.87;;
4889;SDS011;2459;42.268;23.112;2023-01-15T09:45:41;34.20;;;13.03;;
4889;SDS011;2459;42.268;23.112;2023-01-15T09:48:17;29.50;;;14.13;;
4889;SDS011;2459;42.268;23.112;2023-01-15T09:50:52;32.43;;;11.33;;
4889;SDS011;2459;42.268;23.112;2023-01-15T09:53:26;27.63;;;13.70;;
4889;SDS011;2459;42.268;23.112;2023-01-15T09:55:58;39.10;;;13.10;;
4889;SDS011;2459;42.268;23.112;2023-01-15T09:58:26;47.53;;;14.80;;
4889;SDS011;2459;42.268;23.112;2023-01-15T10:00:56;69.23;;;21.07;;
4889;SDS011;2459;42.268;23.112;2023-01-15T10:03:27;45.10;;;20.03;;
4889;SDS011;2459;42.268;23.112;2023-01-15T10:05:57;51.60;;;21.37;;
4889;SDS011;2459;42.268;23.112;2023-01-15T10:08:31;69.87;;;27.70;;
4889;SDS011;2459;42.268;23.112;2023-01-15T10:10:59;52.40;;;18.60;;
4889;SDS011;2459;42.268;23.112;2023-01-15T10:13:28;73.33;;;29.07;;
4889;SDS011;2459;42.268;23.112;2023-01-15T10:15:57;85.40;;;29.97;;
4889;SDS011;2459;42.268;23.112;2023-01-15T10:18:24;72.77;;;26.43;;
4889;SDS011;2459;42.268;23.112;2023-01-15T10:20:59;56.43;;;16.87;;
4889;SDS011;2459;42.268;23.112;2023-01-15T10:23:35;25.83;;;11.90;;
4889;SDS011;2459;42.268;23.112;2023-01-15T10:26:13;36.97;;;13.10;;
4889;SDS011;2459;42.268;23.112;2023-01-15T10:28:56;42.47;;;16.40;;
4889;SDS011;2459;42.268;23.112;2023-01-15T10:31:26;27.33;;;12.67;;
4889;SDS011;2459;42.268;23.112;2023-01-15T10:33:59;27.03;;;11.03;;
4889;SDS011;2459;42.268;23.112;2023-01-15T10:36:31;37.00;;;11.43;;
4889;SDS011;2459;42.268;23.112;2023-01-15T10:39:00;38.33;;;13.27;;
4889;SDS011;2459;42.268;23.112;2023-01-15T10:41:30;28.23;;;12.30;;
4889;SDS011;2459;42.268;23.112;2023-01-15T10:44:03;25.90;;;11.20;;
4889;SDS011;2459;42.268;23.112;2023-01-15T10:46:32;43.83;;;11.33;;
4889;SDS011;2459;42.268;23.112;2023-01-15T10:49:03;21.33;;;10.90;;
4889;SDS011;2459;42.268;23.112;2023-01-15T10:51:33;26.07;;;10.57;;
4889;SDS011;2459;42.268;23.112;2023-01-15T10:54:03;26.10;;;10.30;;
4889;SDS011;2459;42.268;23.112;2023-01-15T10:56:31;34.70;;;11.87;;
4889;SDS011;2459;42.268;23.112;2023-01-15T10:59:01;35.20;;;11.40;;
4889;SDS011;2459;42.268;23.112;2023-01-15T11:01:32;65.30;;;13.17;;
4889;SDS011;2459;42.268;23.112;2023-01-15T11:04:00;59.00;;;17.70;;
4889;SDS011;2459;42.268;23.112;2023-01-15T11:06:28;18.27;;;10.27;;
4889;SDS011;2459;42.268;23.112;2023-01-15T11:08:57;27.03;;;10.80;;
4889;SDS011;2459;42.268;23.112;2023-01-15T11:11:24;30.03;;;12.27;;
4889;SDS011;2459;42.268;23.112;2023-01-15T11:14:30;47.47;;;12.60;;
4889;SDS011;2459;42.268;23.112;2023-01-15T11:17:13;21.90;;;11.33;;
4889;SDS011;2459;42.268;23.112;2023-01-15T11:19:57;34.07;;;15.47;;
4889;SDS011;2459;42.268;23.112;2023-01-15T11:22:24;32.77;;;14.70;;
4889;SDS011;2459;42.268;23.112;2023-01-15T11:24:56;22.23;;;10.70;;
4889;SDS011;2459;42.268;23.112;2023-01-15T11:27:23;21.60;;;11.97;;
4889;SDS011;2459;42.268;23.112;2023-01-15T11:29:51;29.00;;;11.90;;
4889;SDS011;2459;42.268;23.112;2023-01-15T11:32:18;25.13;;;12.07;;
4889;SDS011;2459;42.268;23.112;2023-01-15T11:34:51;19.50;;;10.40;;
4889;SDS011;2459;42.268;23.112;2023-01-15T11:37:17;26.13;;;10.90;;
4889;SDS011;2459;42.268;23.112;2023-01-15T11:39:50;19.60;;;11.50;;
4889;SDS011;2459;42.268;23.112;2023-01-15T11:42:18;19.73;;;10.60;;
4889;SDS011;2459;42.268;23.112;2023-01-15T11:45:10;18.13;;;10.20;;
4889;SDS011;2459;42.268;23.112;2023-01-15T11:47:54;40.20;;;10.80;;
4889;SDS011;2459;42.268;23.112;2023-01-15T11:50:39;15.80;;;9.37;;
4889;SDS011;2459;42.268;23.112;2023-01-15T11:53:14;19.67;;;9.77;;
4889;SDS011;2459;42.268;23.112;2023-01-15T11:55:48;27.67;;;9.60;;
4889;SDS011;2459;42.268;23.112;2023-01-15T11:58:16;20.80;;;11.00;;
4889;SDS011;2459;42.268;23.112;2023-01-15T12:00:43;31.07;;;12.23;;
4889;SDS011;2459;42.268;23.112;2023-01-15T12:03:15;18.90;;;9.63;;
4889;SDS011;2459;42.268;23.112;2023-01-15T12:05:44;17.03;;;9.67;;
4889;SDS011;2459;42.268;23.112;2023-01-15T12:08:12;27.40;;;9.37;;
4889;SDS011;2459;42.268;23.112;2023-01-15T12:10:43;26.43;;;11.07;;
4889;SDS011;2459;42.268;23.112;2023-01-15T12:13:33;32.57;;;15.00;;
4889;SDS011;2459;42.268;23.112;2023-01-15T12:16:02;19.90;;;10.87;;
4889;SDS011;2459;42.268;23.112;2023-01-15T12:18:43;19.13;;;11.77;;
4889;SDS011;2459;42.268;23.112;2023-01-15T12:21:17;30.60;;;12.63;;
4889;SDS011;2459;42.268;23.112;2023-01-15T12:23:59;28.00;;;12.97;;
4889;SDS011;2459;42.268;23.112;2023-01-15T12:26:29;16.30;;;9.03;;
4889;SDS011;2459;42.268;23.112;2023-01-15T12:29:01;26.17;;;13.20;;
4889;SDS011;2459;42.268;23.112;2023-01-15T12:31:31;29.77;;;12.97;;
4889;SDS011;2459;42.268;23.112;2023-01-15T12:33:59;33.47;;;15.50;;
4889;SDS011;2459;42.268;23.112;2023-01-15T12:36:29;31.23;;;14.37;;
4889;SDS011;2459;42.268;23.112;2023-01-15T12:38:57;17.30;;;8.77;;
4889;SDS011;2459;42.268;23.112;2023-01-15T12:41:25;38.53;;;17.53;;
4889;SDS011;2459;42.268;23.112;2023-01-15T12:44:16;28.37;;;12.77;;
4889;SDS011;2459;42.268;23.112;2023-01-15T12:47:02;19.57;;;7.93;;
4889;SDS011;2459;42.268;23.112;2023-01-15T12:49:30;18.23;;;8.80;;
4889;SDS011;2459;42.268;23.112;2023-01-15T12:51:59;60.77;;;20.67;;
4889;SDS011;2459;42.268;23.112;2023-01-15T12:54:27;56.93;;;23.40;;
4889;SDS011;2459;42.268;23.112;2023-01-15T12:56:57;35.03;;;17.07;;
4889;SDS011;2459;42.268;23.112;2023-01-15T12:59:27;37.47;;;14.90;;
4889;SDS011;2459;42.268;23.112;2023-01-15T13:01:57;25.20;;;9.40;;
4889;SDS011;2459;42.268;23.112;2023-01-15T13:04:36;30.93;;;14.07;;
4889;SDS011;2459;42.268;23.112;2023-01-15T13:07:12;35.13;;;12.80;;
4889;SDS011;2459;42.268;23.112;2023-01-15T13:09:40;37.23;;;13.03;;
4889;SDS011;2459;42.268;23.112;2023-01-15T13:12:10;20.77;;;11.00;;
4889;SDS011;2459;42.268;23.112;2023-01-15T13:14:38;37.17;;;12.03;;
4889;SDS011;2459;42.268;23.112;2023-01-15T13:17:06;20.80;;;9.20;;
4889;SDS011;2459;42.268;23.112;2023-01-15T13:19:36;16.60;;;8.83;;
4889;SDS011;2459;42.268;23.112;2023-01-15T13:22:04;15.90;;;9.73;;
4889;SDS011;2459;42.268;23.112;2023-01-15T13:24:41;22.70;;;11.77;;
4889;SDS011;2459;42.268;23.112;2023-01-15T13:27:14;31.53;;;15.57;;
4889;SDS011;2459;42.268;23.112;2023-01-15T13:29:46;19.53;;;10.60;;
4889;SDS011;2459;42.268;23.112;2023-01-15T13:32:17;19.23;;;10.23;;
4889;SDS011;2459;42.268;23.112;2023-01-15T13:34:45;45.07;;;17.40;;
4889;SDS011;2459;42.268;23.112;2023-01-15T13:37:18;26.27;;;12.60;;
4889;SDS011;2459;42.268;23.112;2023-01-15T13:39:45;24.67;;;14.37;;
4889;SDS011;2459;42.268;23.112;2023-01-15T13:42:15;24.67;;;13.50;;
4889;SDS011;2459;42.268;23.112;2023-01-15T13:45:05;30.90;;;11.47;;
4889;SDS011;2459;42.268;23.112;2023-01-15T13:47:33;23.57;;;9.40;;
4889;SDS011;2459;42.268;23.112;2023-01-15T13:50:00;37.07;;;11.23;;
4889;SDS011;2459;42.268;23.112;2023-01-15T13:52:29;23.47;;;10.20;;
4889;SDS011;2459;42.268;23.112;2023-01-15T13:54:57;25.73;;;15.00;;
4889;SDS011;2459;42.268;23.112;2023-01-15T13:57:25;21.60;;;11.77;;
4889;SDS011;2459;42.268;23.112;2023-01-15T13:59:57;26.23;;;14.00;;
4889;SDS011;2459;42.268;23.112;2023-01-15T14:02:26;23.03;;;13.37;;
4889;SDS011;2459;42.268;23.112;2023-01-15T14:04:53;16.70;;;11.07;;
4889;SDS011;2459;42.268;23.112;2023-01-15T14:07:20;25.70;;;12.90;;
4889;SDS011;2459;42.268;23.112;2023-01-15T14:09:48;22.13;;;11.53;;
4889;SDS011;2459;42.268;23.112;2023-01-15T14:12:17;21.70;;;12.67;;
4889;SDS011;2459;42.268;23.112;2023-01-15T14:14:56;29.30;;;14.77;;
4889;SDS011;2459;42.268;23.112;2023-01-15T14:23:02;33.90;;;10.50;;
4889;SDS011;2459;42.268;23.112;2023-01-15T14:25:45;24.30;;;13.23;;
4889;SDS011;2459;42.268;23.112;2023-01-15T14:28:22;37.13;;;16.53;;
4889;SDS011;2459;42.268;23.112;2023-01-15T14:33:39;38.27;;;15.17;;
4889;SDS011;2459;42.268;23.112;2023-01-15T14:36:09;45.13;;;18.47;;
4889;SDS011;2459;42.268;23.112;2023-01-15T14:38:45;23.07;;;14.50;;
4889;SDS011;2459;42.268;23.112;2023-01-15T14:41:12;25.10;;;14.80;;
4889;SDS011;2459;42.268;23.112;2023-01-15T14:43:38;25.30;;;12.17;;
4889;SDS011;2459;42.268;23.112;2023-01-15T14:46:12;25.83;;;12.20;;
4889;SDS011;2459;42.268;23.112;2023-01-15T14:48:39;47.17;;;23.87;;
4889;SDS011;2459;42.268;23.112;2023-01-15T14:51:06;43.13;;;22.70;;
4889;SDS011;2459;42.268;23.112;2023-01-15T14:53:35;44.23;;;24.43;;
4889;SDS011;2459;42.268;23.112;2023-01-15T14:56:09;53.53;;;22.80;;
4889;SDS011;2459;42.268;23.112;2023-01-15T14:58:42;54.07;;;21.77;;